Arlington, Texas
Current Conditions -  °F | °C
As of 4:50 PM on Monday 22 Dec 2014 (Local Time) from KGPM Reporting Station
Clear Clear  
Wind Chill: 16°   Ceiling: Unl
Heat Index: 16°   Visibility: 10mi
Dew Point:   Wind: 5mph
Humidity: 52%   Direction: 320°NW
Pressure: 29.64"   Gusts: NA
Location:  32.74°N, 97.11°W
Report Text: KGPM 222250Z 32004KT 10SM SKC 16/06 A2964
Loading
Personal Weather Stations






























Interactive Weather Map New forecast layout! Learn more

10-Day Weather Forecast

Advertisements
Track Severe Weather on mobile